sensor_id;sensor_type;location;lat;lon;timestamp;pressure;altitude;pressure_sealevel;temperature;humidity
52745;BME280;38637;49.984;20.426;2023-03-22T00:01:51;99308.28;;;8.29;99.39
52745;BME280;38637;49.984;20.426;2023-03-22T00:04:18;99309.63;;;8.26;99.40
52745;BME280;38637;49.984;20.426;2023-03-22T00:06:43;99298.75;;;8.26;99.63
52745;BME280;38637;49.984;20.426;2023-03-22T00:09:08;99301.47;;;8.26;99.78
52745;BME280;38637;49.984;20.426;2023-03-22T00:11:34;99303.34;;;8.26;99.72
52745;BME280;38637;49.984;20.426;2023-03-22T00:13:59;99300.41;;;8.27;99.82
52745;BME280;38637;49.984;20.426;2023-03-22T00:16:25;99295.69;;;8.23;99.70
52745;BME280;38637;49.984;20.426;2023-03-22T00:18:50;99300.41;;;8.27;100.00
52745;BME280;38637;49.984;20.426;2023-03-22T00:21:16;99290.34;;;8.28;99.92
52745;BME280;38637;49.984;20.426;2023-03-22T00:23:43;99295.78;;;8.28;99.80
52745;BME280;38637;49.984;20.426;2023-03-22T00:26:09;99296.03;;;8.26;99.77
52745;BME280;38637;49.984;20.426;2023-03-22T00:28:35;99297.84;;;8.21;100.00
52745;BME280;38637;49.984;20.426;2023-03-22T00:31:02;99303.09;;;8.11;100.00
52745;BME280;38637;49.984;20.426;2023-03-22T00:33:29;99296.84;;;8.10;100.00
52745;BME280;38637;49.984;20.426;2023-03-22T00:35:59;99287.06;;;8.09;100.00
52745;BME280;38637;49.984;20.426;2023-03-22T00:38:25;99287.88;;;8.10;100.00
52745;BME280;38637;49.984;20.426;2023-03-22T00:40:50;99282.09;;;8.06;100.00
52745;BME280;38637;49.984;20.426;2023-03-22T00:43:15;99286.63;;;8.00;100.00
52745;BME280;38637;49.984;20.426;2023-03-22T00:45:41;99287.28;;;7.91;100.00
52745;BME280;38637;49.984;20.426;2023-03-22T00:48:10;99276.22;;;7.80;100.00
52745;BME280;38637;49.984;20.426;2023-03-22T00:50:37;99280.84;;;7.80;100.00
52745;BME280;38637;49.984;20.426;2023-03-22T00:53:02;99280.63;;;7.81;99.84
52745;BME280;38637;49.984;20.426;2023-03-22T00:55:29;99282.16;;;7.77;99.87
52745;BME280;38637;49.984;20.426;2023-03-22T00:57:54;99280.28;;;7.78;99.76
52745;BME280;38637;49.984;20.426;2023-03-22T01:00:20;99225.63;;;7.46;100.00
52745;BME280;38637;49.984;20.426;2023-03-22T01:02:45;99270.78;;;7.80;100.00
52745;BME280;38637;49.984;20.426;2023-03-22T01:05:11;99277.31;;;7.79;99.80
52745;BME280;38637;49.984;20.426;2023-03-22T01:07:42;99272.63;;;7.75;100.00
52745;BME280;38637;49.984;20.426;2023-03-22T01:10:10;99267.19;;;7.75;100.00
52745;BME280;38637;49.984;20.426;2023-03-22T01:12:36;99259.25;;;7.73;100.00
52745;BME280;38637;49.984;20.426;2023-03-22T01:15:02;99260.91;;;7.74;100.00
52745;BME280;38637;49.984;20.426;2023-03-22T01:17:28;99265.50;;;7.74;100.00
52745;BME280;38637;49.984;20.426;2023-03-22T01:19:53;99257.84;;;7.71;100.00
52745;BME280;38637;49.984;20.426;2023-03-22T01:22:18;99252.09;;;7.67;100.00
52745;BME280;38637;49.984;20.426;2023-03-22T01:24:43;99257.34;;;7.57;100.00
52745;BME280;38637;49.984;20.426;2023-03-22T01:27:09;99250.50;;;7.54;100.00
52745;BME280;38637;49.984;20.426;2023-03-22T01:29:35;99257.34;;;7.57;100.00
52745;BME280;38637;49.984;20.426;2023-03-22T01:32:01;99237.75;;;7.55;100.00
52745;BME280;38637;49.984;20.426;2023-03-22T01:34:28;99237.53;;;7.56;100.00
52745;BME280;38637;49.984;20.426;2023-03-22T01:36:53;99241.88;;;7.57;100.00
52745;BME280;38637;49.984;20.426;2023-03-22T01:39:18;99229.00;;;7.53;100.00
52745;BME280;38637;49.984;20.426;2023-03-22T01:41:43;99239.97;;;7.58;100.00
52745;BME280;38637;49.984;20.426;2023-03-22T01:44:13;99232.09;;;7.56;100.00
52745;BME280;38637;49.984;20.426;2023-03-22T01:46:40;99235.78;;;7.50;100.00
52745;BME280;38637;49.984;20.426;2023-03-22T01:49:08;99233.19;;;7.44;100.00
52745;BME280;38637;49.984;20.426;2023-03-22T01:51:36;99230.91;;;7.35;100.00
52745;BME280;38637;49.984;20.426;2023-03-22T01:54:11;99175.81;;;6.95;100.00
52745;BME280;38637;49.984;20.426;2023-03-22T01:56:40;99223.63;;;7.24;100.00
52745;BME280;38637;49.984;20.426;2023-03-22T01:59:09;99237.38;;;7.34;100.00
52745;BME280;38637;49.984;20.426;2023-03-22T02:01:35;99229.97;;;7.30;100.00
52745;BME280;38637;49.984;20.426;2023-03-22T02:04:11;99228.06;;;7.30;100.00
52745;BME280;38637;49.984;20.426;2023-03-22T02:06:37;99228.06;;;7.30;100.00
52745;BME280;38637;49.984;20.426;2023-03-22T02:09:05;99227.25;;;7.30;100.00
52745;BME280;38637;49.984;20.426;2023-03-22T02:11:38;99213.72;;;7.18;100.00
52745;BME280;38637;49.984;20.426;2023-03-22T02:22:10;99229.88;;;7.25;100.00
52745;BME280;38637;49.984;20.426;2023-03-22T02:27:39;99225.13;;;7.03;100.00
52745;BME280;38637;49.984;20.426;2023-03-22T02:33:01;99220.91;;;6.96;100.00
52745;BME280;38637;49.984;20.426;2023-03-22T02:36:40;99221.88;;;6.89;100.00
52745;BME280;38637;49.984;20.426;2023-03-22T02:41:44;99203.41;;;6.75;100.00
52745;BME280;38637;49.984;20.426;2023-03-22T02:50:28;99204.97;;;6.59;100.00
52745;BME280;38637;49.984;20.426;2023-03-22T02:53:05;99209.34;;;6.48;100.00
52745;BME280;38637;49.984;20.426;2023-03-22T02:55:41;99211.38;;;6.41;100.00
52745;BME280;38637;49.984;20.426;2023-03-22T02:58:14;99207.97;;;6.34;100.00
52745;BME280;38637;49.984;20.426;2023-03-22T03:00:43;99209.41;;;6.25;100.00
52745;BME280;38637;49.984;20.426;2023-03-22T03:03:11;99191.59;;;6.17;100.00
52745;BME280;38637;49.984;20.426;2023-03-22T03:05:42;99183.34;;;6.12;100.00
52745;BME280;38637;49.984;20.426;2023-03-22T03:08:09;99184.28;;;6.06;100.00
52745;BME280;38637;49.984;20.426;2023-03-22T03:10:38;99188.19;;;5.98;100.00
52745;BME280;38637;49.984;20.426;2023-03-22T03:13:04;99188.75;;;5.88;100.00
52745;BME280;38637;49.984;20.426;2023-03-22T03:15:30;99182.16;;;5.84;100.00
52745;BME280;38637;49.984;20.426;2023-03-22T03:21:06;99190.16;;;5.67;100.00
52745;BME280;38637;49.984;20.426;2023-03-22T03:23:43;99192.97;;;5.61;100.00
52745;BME280;38637;49.984;20.426;2023-03-22T03:28:50;99179.41;;;5.49;100.00
52745;BME280;38637;49.984;20.426;2023-03-22T03:34:17;99174.22;;;5.36;100.00
52745;BME280;38637;49.984;20.426;2023-03-22T03:36:52;99173.63;;;5.34;100.00
52745;BME280;38637;49.984;20.426;2023-03-22T03:39:20;99162.31;;;5.25;100.00
52745;BME280;38637;49.984;20.426;2023-03-22T03:41:48;99161.59;;;5.18;100.00
52745;BME280;38637;49.984;20.426;2023-03-22T03:44:16;99180.44;;;5.24;100.00
52745;BME280;38637;49.984;20.426;2023-03-22T03:46:44;99175.13;;;5.18;100.00
52745;BME280;38637;49.984;20.426;2023-03-22T03:49:10;99176.03;;;5.12;100.00
52745;BME280;38637;49.984;20.426;2023-03-22T03:51:51;99180.50;;;5.06;100.00
52745;BME280;38637;49.984;20.426;2023-03-22T03:54:18;99158.19;;;4.92;100.00
52745;BME280;38637;49.984;20.426;2023-03-22T03:56:43;99173.06;;;5.01;100.00
52745;BME280;38637;49.984;20.426;2023-03-22T03:59:12;99183.06;;;5.01;100.00
52745;BME280;38637;49.984;20.426;2023-03-22T04:01:40;99191.28;;;4.94;100.00
52745;BME280;38637;49.984;20.426;2023-03-22T04:04:06;99186.53;;;4.90;100.00
52745;BME280;38637;49.984;20.426;2023-03-22T04:06:31;99189.94;;;4.85;99.97
52745;BME280;38637;49.984;20.426;2023-03-22T04:08:58;99192.19;;;4.88;100.00
52745;BME280;38637;49.984;20.426;2023-03-22T04:11:25;99194.19;;;4.93;99.73
52745;BME280;38637;49.984;20.426;2023-03-22T04:13:51;99192.59;;;5.03;100.00
52745;BME280;38637;49.984;20.426;2023-03-22T04:16:16;99192.41;;;5.17;100.00
52745;BME280;38637;49.984;20.426;2023-03-22T04:18:41;99193.25;;;5.29;100.00
52745;BME280;38637;49.984;20.426;2023-03-22T04:21:07;99188.94;;;5.40;100.00
52745;BME280;38637;49.984;20.426;2023-03-22T04:23:32;99192.97;;;5.49;100.00
52745;BME280;38637;49.984;20.426;2023-03-22T04:25:57;99202.16;;;5.60;100.00
52745;BME280;38637;49.984;20.426;2023-03-22T04:28:24;99208.66;;;5.70;100.00
52745;BME280;38637;49.984;20.426;2023-03-22T04:30:51;99205.63;;;5.79;100.00
52745;BME280;38637;49.984;20.426;2023-03-22T04:33:17;99206.53;;;5.84;100.00
52745;BME280;38637;49.984;20.426;2023-03-22T04:35:43;99212.69;;;5.91;100.00
52745;BME280;38637;49.984;20.426;2023-03-22T04:38:10;99213.66;;;5.97;100.00
52745;BME280;38637;49.984;20.426;2023-03-22T04:40:36;99218.13;;;6.03;100.00
52745;BME280;38637;49.984;20.426;2023-03-22T04:43:03;99214.09;;;6.06;100.00
52745;BME280;38637;49.984;20.426;2023-03-22T04:45:29;99212.34;;;6.11;100.00
52745;BME280;38637;49.984;20.426;2023-03-22T04:47:58;99220.34;;;6.18;100.00
52745;BME280;38637;49.984;20.426;2023-03-22T04:50:23;99220.47;;;6.23;100.00
52745;BME280;38637;49.984;20.426;2023-03-22T04:52:52;99221.41;;;6.29;100.00
52745;BME280;38637;49.984;20.426;2023-03-22T04:55:18;99215.53;;;6.32;100.00
52745;BME280;38637;49.984;20.426;2023-03-22T04:57:43;99225.63;;;6.36;100.00
52745;BME280;38637;49.984;20.426;2023-03-22T05:00:09;99226.84;;;6.40;100.00
52745;BME280;38637;49.984;20.426;2023-03-22T05:02:34;99221.63;;;6.39;100.00
52745;BME280;38637;49.984;20.426;2023-03-22T05:05:03;99217.63;;;6.30;99.86
52745;BME280;38637;49.984;20.426;2023-03-22T05:07:29;99222.03;;;6.19;98.42
52745;BME280;38637;49.984;20.426;2023-03-22T05:09:54;99219.91;;;6.09;97.54
52745;BME280;38637;49.984;20.426;2023-03-22T05:12:19;99219.31;;;6.07;97.60
52745;BME280;38637;49.984;20.426;2023-03-22T05:14:45;99225.66;;;6.01;96.78
52745;BME280;38637;49.984;20.426;2023-03-22T05:17:10;99217.75;;;5.99;96.30
52745;BME280;38637;49.984;20.426;2023-03-22T05:19:35;99227.44;;;6.07;95.99
52745;BME280;38637;49.984;20.426;2023-03-22T05:22:01;99218.84;;;6.22;95.77
52745;BME280;38637;49.984;20.426;2023-03-22T05:24:28;99218.81;;;6.34;95.08
52745;BME280;38637;49.984;20.426;2023-03-22T05:26:53;99226.44;;;6.49;94.80
52745;BME280;38637;49.984;20.426;2023-03-22T05:29:19;99226.09;;;6.57;94.37
52745;BME280;38637;49.984;20.426;2023-03-22T05:31:45;99211.81;;;6.61;94.46
52745;BME280;38637;49.984;20.426;2023-03-22T05:34:11;99223.41;;;6.85;94.37
52745;BME280;38637;49.984;20.426;2023-03-22T05:36:37;99232.47;;;6.91;94.05
52745;BME280;38637;49.984;20.426;2023-03-22T05:39:03;99228.72;;;6.92;94.09
52745;BME280;38637;49.984;20.426;2023-03-22T05:41:28;99238.84;;;6.97;94.26
52745;BME280;38637;49.984;20.426;2023-03-22T05:43:56;99243.00;;;6.87;94.13
52745;BME280;38637;49.984;20.426;2023-03-22T05:46:21;99243.25;;;6.86;94.40
52745;BME280;38637;49.984;20.426;2023-03-22T05:48:46;99236.41;;;6.83;94.59
52745;BME280;38637;49.984;20.426;2023-03-22T05:51:13;99241.84;;;6.83;95.10
52745;BME280;38637;49.984;20.426;2023-03-22T05:53:46;99238.06;;;6.84;95.27
52745;BME280;38637;49.984;20.426;2023-03-22T05:56:12;99244.31;;;6.85;95.30
52745;BME280;38637;49.984;20.426;2023-03-22T05:58:38;99249.84;;;6.90;95.05
52745;BME280;38637;49.984;20.426;2023-03-22T06:01:09;99235.59;;;6.83;95.11
52745;BME280;38637;49.984;20.426;2023-03-22T06:03:36;99240.06;;;6.89;94.94
52745;BME280;38637;49.984;20.426;2023-03-22T06:06:02;99252.56;;;6.90;94.92
52745;BME280;38637;49.984;20.426;2023-03-22T06:08:31;99242.78;;;6.89;94.12
52745;BME280;38637;49.984;20.426;2023-03-22T06:10:58;99250.53;;;6.97;93.80
52745;BME280;38637;49.984;20.426;2023-03-22T06:13:24;99248.59;;;7.09;93.24
52745;BME280;38637;49.984;20.426;2023-03-22T06:15:49;99252.41;;;7.25;92.83
52745;BME280;38637;49.984;20.426;2023-03-22T06:18:15;99253.94;;;7.33;92.58
52745;BME280;38637;49.984;20.426;2023-03-22T06:20:40;99253.94;;;7.33;92.29
52745;BME280;38637;49.984;20.426;2023-03-22T06:23:06;99256.31;;;7.29;92.35
52745;BME280;38637;49.984;20.426;2023-03-22T06:25:31;99256.81;;;7.26;92.39
52745;BME280;38637;49.984;20.426;2023-03-22T06:27:57;99256.34;;;7.18;92.37
52745;BME280;38637;49.984;20.426;2023-03-22T06:30:22;99258.75;;;7.14;92.81
52745;BME280;38637;49.984;20.426;2023-03-22T06:32:48;99257.19;;;7.18;92.46
52745;BME280;38637;49.984;20.426;2023-03-22T06:35:13;99266.88;;;7.43;92.25
52745;BME280;38637;49.984;20.426;2023-03-22T06:37:40;99257.28;;;7.69;91.75
52745;BME280;38637;49.984;20.426;2023-03-22T06:40:06;99245.50;;;7.80;91.01
52745;BME280;38637;49.984;20.426;2023-03-22T06:42:31;99257.28;;;7.86;90.92
52745;BME280;38637;49.984;20.426;2023-03-22T06:44:57;99252.53;;;7.93;90.96
52745;BME280;38637;49.984;20.426;2023-03-22T06:47:23;99258.28;;;8.13;90.45
52745;BME280;38637;49.984;20.426;2023-03-22T06:49:48;99252.66;;;8.37;89.97
52745;BME280;38637;49.984;20.426;2023-03-22T06:52:14;99247.28;;;8.59;89.87
52745;BME280;38637;49.984;20.426;2023-03-22T06:54:40;99244.56;;;8.81;89.70
52745;BME280;38637;49.984;20.426;2023-03-22T06:57:05;99228.91;;;8.93;89.05
52745;BME280;38637;49.984;20.426;2023-03-22T06:59:30;99240.47;;;9.27;88.42
52745;BME280;38637;49.984;20.426;2023-03-22T07:01:56;99249.63;;;9.43;88.40
52745;BME280;38637;49.984;20.426;2023-03-22T07:04:22;99251.50;;;9.70;88.17
52745;BME280;38637;49.984;20.426;2023-03-22T07:06:48;99243.75;;;9.83;87.99
52745;BME280;38637;49.984;20.426;2023-03-22T07:09:13;99246.25;;;9.90;88.06
52745;BME280;38637;49.984;20.426;2023-03-22T07:11:39;99239.97;;;9.89;88.10
52745;BME280;38637;49.984;20.426;2023-03-22T07:14:04;99247.94;;;9.96;88.53
52745;BME280;38637;49.984;20.426;2023-03-22T07:16:29;99240.91;;;10.05;88.62
52745;BME280;38637;49.984;20.426;2023-03-22T07:18:55;99239.91;;;10.22;88.07
52745;BME280;38637;49.984;20.426;2023-03-22T07:21:21;99230.75;;;10.33;87.96
52745;BME280;38637;49.984;20.426;2023-03-22T07:23:46;99236.28;;;10.43;87.86
52745;BME280;38637;49.984;20.426;2023-03-22T07:26:11;99235.22;;;10.49;87.90
52745;BME280;38637;49.984;20.426;2023-03-22T07:28:38;99232.00;;;10.57;87.79
52745;BME280;38637;49.984;20.426;2023-03-22T07:31:07;99230.34;;;10.56;87.33
52745;BME280;38637;49.984;20.426;2023-03-22T07:33:36;99223.56;;;10.59;87.62
52745;BME280;38637;49.984;20.426;2023-03-22T07:36:02;99223.84;;;10.63;87.49
52745;BME280;38637;49.984;20.426;2023-03-22T07:38:28;99227.66;;;10.67;87.39
52745;BME280;38637;49.984;20.426;2023-03-22T07:40:53;99230.16;;;10.68;87.41
52745;BME280;38637;49.984;20.426;2023-03-22T07:43:20;99221.38;;;10.66;87.41
52745;BME280;38637;49.984;20.426;2023-03-22T07:45:48;99227.94;;;10.65;86.92
52745;BME280;38637;49.984;20.426;2023-03-22T07:48:13;99222.25;;;10.72;86.92
52745;BME280;38637;49.984;20.426;2023-03-22T07:50:38;99221.19;;;10.83;87.21
52745;BME280;38637;49.984;20.426;2023-03-22T07:53:04;99220.13;;;10.94;86.47
52745;BME280;38637;49.984;20.426;2023-03-22T07:55:29;99207.34;;;11.05;86.14
52745;BME280;38637;49.984;20.426;2023-03-22T07:57:54;99206.25;;;11.16;85.41
52745;BME280;38637;49.984;20.426;2023-03-22T08:00:20;99215.56;;;11.25;85.55
52745;BME280;38637;49.984;20.426;2023-03-22T08:02:46;99203.03;;;11.30;84.57
52745;BME280;38637;49.984;20.426;2023-03-22T08:05:11;99213.41;;;11.27;84.04
52745;BME280;38637;49.984;20.426;2023-03-22T08:07:37;99204.66;;;11.25;84.12
52745;BME280;38637;49.984;20.426;2023-03-22T08:10:03;99203.81;;;11.25;84.03
52745;BME280;38637;49.984;20.426;2023-03-22T08:12:28;99205.75;;;11.30;83.58
52745;BME280;38637;49.984;20.426;2023-03-22T08:14:54;99208.75;;;11.38;83.75
52745;BME280;38637;49.984;20.426;2023-03-22T08:17:20;99200.03;;;11.41;83.40
52745;BME280;38637;49.984;20.426;2023-03-22T08:19:45;99201.97;;;11.51;83.25
52745;BME280;38637;49.984;20.426;2023-03-22T08:22:11;99198.97;;;11.58;83.06
52745;BME280;38637;49.984;20.426;2023-03-22T08:24:37;99191.28;;;11.60;82.63
52745;BME280;38637;49.984;20.426;2023-03-22T08:27:03;99202.53;;;11.63;82.16
52745;BME280;38637;49.984;20.426;2023-03-22T08:29:28;99197.59;;;11.70;81.45
52745;BME280;38637;49.984;20.426;2023-03-22T08:31:53;99197.31;;;11.72;80.45
52745;BME280;38637;49.984;20.426;2023-03-22T08:34:20;99201.41;;;11.74;80.03
52745;BME280;38637;49.984;20.426;2023-03-22T08:36:45;99200.06;;;11.77;79.33
52745;BME280;38637;49.984;20.426;2023-03-22T08:39:11;99187.47;;;11.71;78.53
52745;BME280;38637;49.984;20.426;2023-03-22T08:41:38;99200.59;;;11.84;78.40
52745;BME280;38637;49.984;20.426;2023-03-22T08:44:03;99198.72;;;11.90;78.10
52745;BME280;38637;49.984;20.426;2023-03-22T08:46:29;99192.97;;;11.91;77.47
52745;BME280;38637;49.984;20.426;2023-03-22T08:48:54;99196.78;;;11.95;76.07
52745;BME280;38637;49.984;20.426;2023-03-22T08:51:22;99202.00;;;11.97;76.26
52745;BME280;38637;49.984;20.426;2023-03-22T08:53:48;99186.94;;;11.94;76.16
52745;BME280;38637;49.984;20.426;2023-03-22T08:56:14;99194.88;;;11.96;75.72
52745;BME280;38637;49.984;20.426;2023-03-22T08:58:41;99187.22;;;11.98;76.03
52745;BME280;38637;49.984;20.426;2023-03-22T09:01:11;99181.75;;;11.93;73.00
52745;BME280;38637;49.984;20.426;2023-03-22T09:03:37;99191.59;;;11.99;74.21
52745;BME280;38637;49.984;20.426;2023-03-22T09:06:02;99191.03;;;12.07;74.46
52745;BME280;38637;49.984;20.426;2023-03-22T09:08:27;99187.75;;;12.15;74.22
52745;BME280;38637;49.984;20.426;2023-03-22T09:10:53;99187.97;;;12.24;74.27
52745;BME280;38637;49.984;20.426;2023-03-22T09:13:19;99181.13;;;12.32;74.21
52745;BME280;38637;49.984;20.426;2023-03-22T09:15:44;99185.75;;;12.41;74.05
52745;BME280;38637;49.984;20.426;2023-03-22T09:18:10;99177.78;;;12.55;73.88
52745;BME280;38637;49.984;20.426;2023-03-22T09:20:36;99174.75;;;12.57;71.25
52745;BME280;38637;49.984;20.426;2023-03-22T09:23:01;99176.63;;;12.67;70.98
52745;BME280;38637;49.984;20.426;2023-03-22T09:25:26;99174.13;;;12.80;71.05
52745;BME280;38637;49.984;20.426;2023-03-22T09:27:52;99157.88;;;12.94;69.49
52745;BME280;38637;49.984;20.426;2023-03-22T09:30:17;99149.56;;;13.09;70.13
52745;BME280;38637;49.984;20.426;2023-03-22T09:32:42;99150.59;;;13.19;68.50
52745;BME280;38637;49.984;20.426;2023-03-22T09:35:08;99140.72;;;13.23;68.26
52745;BME280;38637;49.984;20.426;2023-03-22T09:37:33;99145.03;;;13.34;67.85
52745;BME280;38637;49.984;20.426;2023-03-22T09:39:59;99142.44;;;13.53;66.90
52745;BME280;38637;49.984;20.426;2023-03-22T09:42:31;99140.06;;;13.75;67.20
52745;BME280;38637;49.984;20.426;2023-03-22T09:45:00;99138.78;;;13.92;66.75
52745;BME280;38637;49.984;20.426;2023-03-22T09:47:33;99143.28;;;14.12;66.73
52745;BME280;38637;49.984;20.426;2023-03-22T09:50:05;99142.22;;;14.32;65.58
52745;BME280;38637;49.984;20.426;2023-03-22T09:52:32;99140.47;;;14.41;63.31
52745;BME280;38637;49.984;20.426;2023-03-22T09:54:58;99137.97;;;14.68;60.79
52745;BME280;38637;49.984;20.426;2023-03-22T09:57:35;99137.88;;;14.98;60.27
52745;BME280;38637;49.984;20.426;2023-03-22T10:00:17;99138.31;;;15.24;59.29
52745;BME280;38637;49.984;20.426;2023-03-22T10:07:56;99125.31;;;15.81;58.14
52745;BME280;38637;49.984;20.426;2023-03-22T10:10:25;99134.56;;;15.71;54.35
52745;BME280;38637;49.984;20.426;2023-03-22T10:15:32;99102.81;;;15.41;52.07
52745;BME280;38637;49.984;20.426;2023-03-22T10:18:02;99120.50;;;15.54;52.03
52745;BME280;38637;49.984;20.426;2023-03-22T10:20:35;99118.13;;;15.47;52.42
52745;BME280;38637;49.984;20.426;2023-03-22T10:23:06;99121.06;;;15.37;53.60
52745;BME280;38637;49.984;20.426;2023-03-22T10:25:36;99126.88;;;15.16;53.76
52745;BME280;38637;49.984;20.426;2023-03-22T10:28:24;99123.75;;;14.85;52.48
52745;BME280;38637;49.984;20.426;2023-03-22T10:30:53;99117.19;;;14.81;53.85
52745;BME280;38637;49.984;20.426;2023-03-22T10:35:53;99120.56;;;14.97;55.23
52745;BME280;38637;49.984;20.426;2023-03-22T10:38:25;99111.03;;;14.89;53.95
52745;BME280;38637;49.984;20.426;2023-03-22T10:40:53;99116.75;;;14.93;54.45
52745;BME280;38637;49.984;20.426;2023-03-22T10:43:29;99113.84;;;14.84;54.19
52745;BME280;38637;49.984;20.426;2023-03-22T10:45:56;99110.81;;;14.86;54.24
52745;BME280;38637;49.984;20.426;2023-03-22T10:48:38;99105.47;;;14.76;54.47
52745;BME280;38637;49.984;20.426;2023-03-22T10:51:06;99073.34;;;14.52;53.75
52745;BME280;38637;49.984;20.426;2023-03-22T10:53:47;99110.28;;;15.03;53.77
52745;BME280;38637;49.984;20.426;2023-03-22T10:56:16;99111.50;;;15.15;52.51
52745;BME280;38637;49.984;20.426;2023-03-22T10:58:44;99103.69;;;15.55;52.61
52745;BME280;38637;49.984;20.426;2023-03-22T11:01:14;99109.63;;;15.95;52.41
52745;BME280;38637;49.984;20.426;2023-03-22T11:03:49;99098.31;;;16.24;51.71
52745;BME280;38637;49.984;20.426;2023-03-22T11:06:21;99088.09;;;16.52;51.96
52745;BME280;38637;49.984;20.426;2023-03-22T11:08:48;99089.09;;;16.70;52.00
52745;BME280;38637;49.984;20.426;2023-03-22T11:11:25;99091.78;;;16.75;51.66
52745;BME280;38637;49.984;20.426;2023-03-22T11:16:18;99089.84;;;16.76;51.82
52745;BME280;38637;49.984;20.426;2023-03-22T11:18:44;99087.16;;;16.71;52.50
52745;BME280;38637;49.984;20.426;2023-03-22T11:21:11;99082.50;;;16.58;51.35
52745;BME280;38637;49.984;20.426;2023-03-22T11:23:40;99078.81;;;16.48;51.83
52745;BME280;38637;49.984;20.426;2023-03-22T11:26:13;99071.25;;;16.40;52.55
52745;BME280;38637;49.984;20.426;2023-03-22T11:28:45;99070.94;;;16.55;52.17
52745;BME280;38637;49.984;20.426;2023-03-22T11:31:16;99071.03;;;16.64;49.28
52745;BME280;38637;49.984;20.426;2023-03-22T11:33:58;99063.59;;;16.79;50.56
52745;BME280;38637;49.984;20.426;2023-03-22T11:36:24;99064.88;;;16.95;50.86
52745;BME280;38637;49.984;20.426;2023-03-22T11:38:58;99062.06;;;17.09;50.15
52745;BME280;38637;49.984;20.426;2023-03-22T11:41:30;99058.38;;;17.13;49.41
52745;BME280;38637;49.984;20.426;2023-03-22T11:44:00;99057.28;;;17.23;49.86
52745;BME280;38637;49.984;20.426;2023-03-22T11:46:27;99047.66;;;17.34;48.88
52745;BME280;38637;49.984;20.426;2023-03-22T11:48:57;99052.53;;;17.37;47.93
52745;BME280;38637;49.984;20.426;2023-03-22T11:51:31;99040.72;;;17.23;47.47
52745;BME280;38637;49.984;20.426;2023-03-22T11:54:24;99048.59;;;17.30;48.57
52745;BME280;38637;49.984;20.426;2023-03-22T11:56:53;99034.22;;;17.19;48.83
52745;BME280;38637;49.984;20.426;2023-03-22T11:59:25;99047.56;;;17.26;49.35
52745;BME280;38637;49.984;20.426;2023-03-22T12:01:55;99042.97;;;16.98;48.56
52745;BME280;38637;49.984;20.426;2023-03-22T12:04:27;99039.19;;;16.72;48.54
52745;BME280;38637;49.984;20.426;2023-03-22T12:06:58;99026.84;;;16.55;49.55
52745;BME280;38637;49.984;20.426;2023-03-22T12:09:37;99030.28;;;16.75;50.13
52745;BME280;38637;49.984;20.426;2023-03-22T12:12:04;99025.53;;;16.53;48.74
52745;BME280;38637;49.984;20.426;2023-03-22T12:14:56;99022.78;;;16.53;49.71
52745;BME280;38637;49.984;20.426;2023-03-22T12:17:36;99024.41;;;16.40;50.37
52745;BME280;38637;49.984;20.426;2023-03-22T12:22:58;99033.09;;;16.34;50.33
52745;BME280;38637;49.984;20.426;2023-03-22T12:25:27;99019.94;;;16.30;50.84
52745;BME280;38637;49.984;20.426;2023-03-22T12:27:56;99023.63;;;16.26;51.34
52745;BME280;38637;49.984;20.426;2023-03-22T12:30:26;99019.66;;;16.18;51.26
52745;BME280;38637;49.984;20.426;2023-03-22T12:33:05;99016.09;;;16.18;51.23
52745;BME280;38637;49.984;20.426;2023-03-22T12:35:35;99016.59;;;16.20;50.94
52745;BME280;38637;49.984;20.426;2023-03-22T12:40:46;99008.34;;;16.06;51.88
52745;BME280;38637;49.984;20.426;2023-03-22T12:45:58;99008.97;;;15.89;52.73
52745;BME280;38637;49.984;20.426;2023-03-22T12:48:34;99006.69;;;15.91;52.36
52745;BME280;38637;49.984;20.426;2023-03-22T12:51:05;99012.03;;;16.01;53.17
52745;BME280;38637;49.984;20.426;2023-03-22T12:53:38;99001.81;;;16.02;53.06
52745;BME280;38637;49.984;20.426;2023-03-22T12:56:11;99004.53;;;16.16;52.96
52745;BME280;38637;49.984;20.426;2023-03-22T12:58:38;99002.50;;;16.35;52.82
52745;BME280;38637;49.984;20.426;2023-03-22T13:04:29;98983.91;;;16.41;53.08
52745;BME280;38637;49.984;20.426;2023-03-22T13:07:07;98991.75;;;16.47;53.72
52745;BME280;38637;49.984;20.426;2023-03-22T13:09:36;98991.56;;;16.44;53.58
52745;BME280;38637;49.984;20.426;2023-03-22T13:27:56;98969.84;;;16.65;54.19
52745;BME280;38637;49.984;20.426;2023-03-22T13:30:49;98971.31;;;16.62;54.06
52745;BME280;38637;49.984;20.426;2023-03-22T13:33:25;98965.81;;;16.48;53.27
52745;BME280;38637;49.984;20.426;2023-03-22T13:36:05;98957.38;;;16.45;53.29
52745;BME280;38637;49.984;20.426;2023-03-22T13:38:34;98955.75;;;16.44;53.12
52745;BME280;38637;49.984;20.426;2023-03-22T13:41:07;98946.16;;;16.41;53.40
52745;BME280;38637;49.984;20.426;2023-03-22T13:43:46;98946.16;;;16.41;53.79
52745;BME280;38637;49.984;20.426;2023-03-22T13:54:01;98919.97;;;16.52;53.60
52745;BME280;38637;49.984;20.426;2023-03-22T14:04:16;98918.97;;;16.71;54.38
52745;BME280;38637;49.984;20.426;2023-03-22T14:06:54;98924.69;;;16.97;53.63
52745;BME280;38637;49.984;20.426;2023-03-22T14:09:29;98907.34;;;17.28;53.14
52745;BME280;38637;49.984;20.426;2023-03-22T14:12:04;98894.63;;;17.49;52.15
52745;BME280;38637;49.984;20.426;2023-03-22T14:14:38;98910.25;;;17.62;52.01
52745;BME280;38637;49.984;20.426;2023-03-22T14:17:17;98891.00;;;17.40;52.55
52745;BME280;38637;49.984;20.426;2023-03-22T14:19:46;98905.94;;;17.39;52.48
52745;BME280;38637;49.984;20.426;2023-03-22T14:22:13;98902.56;;;17.42;51.66
52745;BME280;38637;49.984;20.426;2023-03-22T14:24:45;98908.06;;;17.42;51.65
52745;BME280;38637;49.984;20.426;2023-03-22T14:27:15;98902.97;;;17.35;51.75